sensor_id;sensor_type;location;lat;lon;timestamp;P1;durP1;ratioP1;P2;durP2;ratioP2
78148;SDS011;67396;42.664;23.382;2023-08-12T00:00:16;4.55;;;3.22;;
78148;SDS011;67396;42.664;23.382;2023-08-12T00:02:42;8.40;;;3.72;;
78148;SDS011;67396;42.664;23.382;2023-08-12T00:05:09;6.95;;;4.07;;
78148;SDS011;67396;42.664;23.382;2023-08-12T00:07:38;6.15;;;3.67;;
78148;SDS011;67396;42.664;23.382;2023-08-12T00:10:09;5.88;;;3.85;;
78148;SDS011;67396;42.664;23.382;2023-08-12T00:12:36;7.13;;;3.63;;
78148;SDS011;67396;42.664;23.382;2023-08-12T00:15:03;5.53;;;3.45;;
78148;SDS011;67396;42.664;23.382;2023-08-12T00:17:31;6.47;;;3.55;;
78148;SDS011;67396;42.664;23.382;2023-08-12T00:19:57;4.72;;;3.47;;
78148;SDS011;67396;42.664;23.382;2023-08-12T00:22:23;5.50;;;3.83;;
78148;SDS011;67396;42.664;23.382;2023-08-12T00:24:48;5.88;;;4.03;;
78148;SDS011;67396;42.664;23.382;2023-08-12T00:27:14;5.78;;;3.90;;
78148;SDS011;67396;42.664;23.382;2023-08-12T00:29:39;6.82;;;4.13;;
78148;SDS011;67396;42.664;23.382;2023-08-12T00:32:05;4.15;;;3.38;;
78148;SDS011;67396;42.664;23.382;2023-08-12T00:34:30;5.47;;;3.65;;
78148;SDS011;67396;42.664;23.382;2023-08-12T00:36:56;7.35;;;4.18;;
78148;SDS011;67396;42.664;23.382;2023-08-12T00:39:21;6.85;;;4.20;;
78148;SDS011;67396;42.664;23.382;2023-08-12T00:41:47;7.03;;;3.42;;
78148;SDS011;67396;42.664;23.382;2023-08-12T00:44:13;5.78;;;3.65;;
78148;SDS011;67396;42.664;23.382;2023-08-12T00:46:38;7.82;;;3.65;;
78148;SDS011;67396;42.664;23.382;2023-08-12T00:49:06;5.22;;;3.47;;
78148;SDS011;67396;42.664;23.382;2023-08-12T00:51:31;5.07;;;3.20;;
78148;SDS011;67396;42.664;23.382;2023-08-12T00:54:00;5.35;;;3.40;;
78148;SDS011;67396;42.664;23.382;2023-08-12T00:56:29;5.82;;;3.67;;
78148;SDS011;67396;42.664;23.382;2023-08-12T00:58:56;7.07;;;4.05;;
78148;SDS011;67396;42.664;23.382;2023-08-12T01:01:22;5.70;;;3.40;;
78148;SDS011;67396;42.664;23.382;2023-08-12T01:03:48;5.45;;;3.28;;
78148;SDS011;67396;42.664;23.382;2023-08-12T01:06:13;6.05;;;3.97;;
78148;SDS011;67396;42.664;23.382;2023-08-12T01:08:38;3.83;;;3.08;;
78148;SDS011;67396;42.664;23.382;2023-08-12T01:11:20;4.95;;;4.00;;
78148;SDS011;67396;42.664;23.382;2023-08-12T01:14:02;5.65;;;3.22;;
78148;SDS011;67396;42.664;23.382;2023-08-12T01:16:37;5.70;;;3.22;;
78148;SDS011;67396;42.664;23.382;2023-08-12T01:19:08;3.97;;;3.17;;
78148;SDS011;67396;42.664;23.382;2023-08-12T01:21:36;4.97;;;3.28;;
78148;SDS011;67396;42.664;23.382;2023-08-12T01:24:07;4.43;;;3.15;;
78148;SDS011;67396;42.664;23.382;2023-08-12T01:26:32;4.95;;;3.38;;
78148;SDS011;67396;42.664;23.382;2023-08-12T01:28:57;4.07;;;3.17;;
78148;SDS011;67396;42.664;23.382;2023-08-12T01:31:28;4.32;;;2.72;;
78148;SDS011;67396;42.664;23.382;2023-08-12T01:34:02;5.50;;;3.50;;
78148;SDS011;67396;42.664;23.382;2023-08-12T01:36:37;4.43;;;3.63;;
78148;SDS011;67396;42.664;23.382;2023-08-12T01:39:04;6.65;;;4.18;;
78148;SDS011;67396;42.664;23.382;2023-08-12T01:41:34;5.75;;;3.15;;
78148;SDS011;67396;42.664;23.382;2023-08-12T01:44:00;6.45;;;3.67;;
78148;SDS011;67396;42.664;23.382;2023-08-12T01:46:27;5.93;;;3.78;;
78148;SDS011;67396;42.664;23.382;2023-08-12T01:48:53;6.47;;;3.97;;
78148;SDS011;67396;42.664;23.382;2023-08-12T01:51:18;5.25;;;3.63;;
78148;SDS011;67396;42.664;23.382;2023-08-12T01:53:43;5.03;;;3.33;;
78148;SDS011;67396;42.664;23.382;2023-08-12T01:56:09;6.47;;;3.38;;
78148;SDS011;67396;42.664;23.382;2023-08-12T01:58:34;5.03;;;3.10;;
78148;SDS011;67396;42.664;23.382;2023-08-12T02:01:00;6.90;;;3.30;;
78148;SDS011;67396;42.664;23.382;2023-08-12T02:03:25;4.00;;;3.25;;
78148;SDS011;67396;42.664;23.382;2023-08-12T02:05:50;4.75;;;2.92;;
78148;SDS011;67396;42.664;23.382;2023-08-12T02:08:16;5.25;;;3.80;;
78148;SDS011;67396;42.664;23.382;2023-08-12T02:10:42;3.90;;;2.97;;
78148;SDS011;67396;42.664;23.382;2023-08-12T02:13:07;5.97;;;3.67;;
78148;SDS011;67396;42.664;23.382;2023-08-12T02:15:32;4.18;;;3.10;;
78148;SDS011;67396;42.664;23.382;2023-08-12T02:17:58;8.68;;;3.90;;
78148;SDS011;67396;42.664;23.382;2023-08-12T02:20:24;6.15;;;4.03;;
78148;SDS011;67396;42.664;23.382;2023-08-12T02:22:49;8.05;;;3.15;;
78148;SDS011;67396;42.664;23.382;2023-08-12T02:25:15;4.70;;;3.63;;
78148;SDS011;67396;42.664;23.382;2023-08-12T02:27:40;4.65;;;3.70;;
78148;SDS011;67396;42.664;23.382;2023-08-12T02:30:06;5.65;;;3.85;;
78148;SDS011;67396;42.664;23.382;2023-08-12T02:32:32;5.10;;;3.05;;
78148;SDS011;67396;42.664;23.382;2023-08-12T02:34:57;5.70;;;3.58;;
78148;SDS011;67396;42.664;23.382;2023-08-12T02:37:23;5.95;;;3.38;;
78148;SDS011;67396;42.664;23.382;2023-08-12T02:39:48;4.95;;;3.38;;
78148;SDS011;67396;42.664;23.382;2023-08-12T02:42:14;7.38;;;3.38;;
78148;SDS011;67396;42.664;23.382;2023-08-12T02:44:39;4.57;;;3.72;;
78148;SDS011;67396;42.664;23.382;2023-08-12T02:47:04;4.93;;;3.08;;
78148;SDS011;67396;42.664;23.382;2023-08-12T02:49:30;5.75;;;3.60;;
78148;SDS011;67396;42.664;23.382;2023-08-12T02:51:55;6.05;;;3.55;;
78148;SDS011;67396;42.664;23.382;2023-08-12T02:54:21;4.88;;;3.38;;
78148;SDS011;67396;42.664;23.382;2023-08-12T02:56:46;6.10;;;3.60;;
78148;SDS011;67396;42.664;23.382;2023-08-12T02:59:11;7.57;;;2.85;;
78148;SDS011;67396;42.664;23.382;2023-08-12T03:01:37;25.20;;;7.60;;
78148;SDS011;67396;42.664;23.382;2023-08-12T03:04:02;14.02;;;4.10;;
78148;SDS011;67396;42.664;23.382;2023-08-12T03:06:28;4.72;;;3.25;;
78148;SDS011;67396;42.664;23.382;2023-08-12T03:08:53;4.20;;;3.72;;
78148;SDS011;67396;42.664;23.382;2023-08-12T03:11:18;4.25;;;3.65;;
78148;SDS011;67396;42.664;23.382;2023-08-12T03:13:44;8.48;;;3.17;;
78148;SDS011;67396;42.664;23.382;2023-08-12T03:16:13;7.28;;;3.95;;
78148;SDS011;67396;42.664;23.382;2023-08-12T03:18:39;5.68;;;3.33;;
78148;SDS011;67396;42.664;23.382;2023-08-12T03:21:06;5.38;;;3.63;;
78148;SDS011;67396;42.664;23.382;2023-08-12T03:23:35;6.18;;;2.78;;
78148;SDS011;67396;42.664;23.382;2023-08-12T03:26:02;5.47;;;3.25;;
78148;SDS011;67396;42.664;23.382;2023-08-12T03:28:28;5.28;;;3.72;;
78148;SDS011;67396;42.664;23.382;2023-08-12T03:30:53;6.00;;;3.92;;
78148;SDS011;67396;42.664;23.382;2023-08-12T03:33:19;5.35;;;3.97;;
78148;SDS011;67396;42.664;23.382;2023-08-12T03:35:48;5.65;;;3.30;;
78148;SDS011;67396;42.664;23.382;2023-08-12T03:38:14;4.88;;;3.67;;
78148;SDS011;67396;42.664;23.382;2023-08-12T03:40:40;5.07;;;3.78;;
78148;SDS011;67396;42.664;23.382;2023-08-12T03:43:07;6.63;;;4.38;;
78148;SDS011;67396;42.664;23.382;2023-08-12T03:45:32;5.70;;;4.63;;
78148;SDS011;67396;42.664;23.382;2023-08-12T03:48:04;4.97;;;3.85;;
78148;SDS011;67396;42.664;23.382;2023-08-12T03:50:32;6.45;;;4.95;;
78148;SDS011;67396;42.664;23.382;2023-08-12T03:52:58;7.15;;;4.80;;
78148;SDS011;67396;42.664;23.382;2023-08-12T03:55:24;7.60;;;4.00;;
78148;SDS011;67396;42.664;23.382;2023-08-12T03:57:49;9.55;;;4.55;;
78148;SDS011;67396;42.664;23.382;2023-08-12T04:00:15;9.27;;;4.32;;
78148;SDS011;67396;42.664;23.382;2023-08-12T04:02:41;6.75;;;4.25;;
78148;SDS011;67396;42.664;23.382;2023-08-12T04:05:08;11.07;;;4.68;;
78148;SDS011;67396;42.664;23.382;2023-08-12T04:07:35;6.97;;;3.83;;
78148;SDS011;67396;42.664;23.382;2023-08-12T04:10:01;7.28;;;4.13;;
78148;SDS011;67396;42.664;23.382;2023-08-12T04:12:26;11.73;;;4.85;;
78148;SDS011;67396;42.664;23.382;2023-08-12T04:14:52;12.07;;;6.03;;
78148;SDS011;67396;42.664;23.382;2023-08-12T04:17:17;7.55;;;4.95;;
78148;SDS011;67396;42.664;23.382;2023-08-12T04:19:42;9.50;;;5.32;;
78148;SDS011;67396;42.664;23.382;2023-08-12T04:22:08;9.27;;;6.47;;
78148;SDS011;67396;42.664;23.382;2023-08-12T04:24:33;10.93;;;5.32;;
78148;SDS011;67396;42.664;23.382;2023-08-12T04:26:59;8.55;;;5.72;;
78148;SDS011;67396;42.664;23.382;2023-08-12T04:29:24;11.70;;;7.20;;
78148;SDS011;67396;42.664;23.382;2023-08-12T04:31:50;13.20;;;7.10;;
78148;SDS011;67396;42.664;23.382;2023-08-12T04:34:17;11.88;;;7.38;;
78148;SDS011;67396;42.664;23.382;2023-08-12T04:36:43;11.77;;;7.55;;
78148;SDS011;67396;42.664;23.382;2023-08-12T04:39:08;12.60;;;7.32;;
78148;SDS011;67396;42.664;23.382;2023-08-12T04:41:33;13.63;;;7.68;;
78148;SDS011;67396;42.664;23.382;2023-08-12T04:43:59;20.60;;;12.15;;
78148;SDS011;67396;42.664;23.382;2023-08-12T04:46:24;17.42;;;10.63;;
78148;SDS011;67396;42.664;23.382;2023-08-12T04:48:50;19.77;;;13.20;;
78148;SDS011;67396;42.664;23.382;2023-08-12T04:51:15;20.75;;;12.05;;
78148;SDS011;67396;42.664;23.382;2023-08-12T04:53:40;14.25;;;9.88;;
78148;SDS011;67396;42.664;23.382;2023-08-12T04:56:06;11.98;;;7.72;;
78148;SDS011;67396;42.664;23.382;2023-08-12T04:58:32;11.73;;;7.28;;
78148;SDS011;67396;42.664;23.382;2023-08-12T05:00:57;8.80;;;5.35;;
78148;SDS011;67396;42.664;23.382;2023-08-12T05:03:23;8.52;;;5.50;;
78148;SDS011;67396;42.664;23.382;2023-08-12T05:05:51;11.40;;;6.18;;
78148;SDS011;67396;42.664;23.382;2023-08-12T05:08:17;8.27;;;5.05;;
78148;SDS011;67396;42.664;23.382;2023-08-12T05:10:43;9.60;;;5.35;;
78148;SDS011;67396;42.664;23.382;2023-08-12T05:13:08;8.25;;;5.45;;
78148;SDS011;67396;42.664;23.382;2023-08-12T05:15:34;7.45;;;5.00;;
78148;SDS011;67396;42.664;23.382;2023-08-12T05:18:01;8.13;;;4.85;;
78148;SDS011;67396;42.664;23.382;2023-08-12T05:20:27;8.20;;;5.53;;
78148;SDS011;67396;42.664;23.382;2023-08-12T05:22:53;10.35;;;5.40;;
78148;SDS011;67396;42.664;23.382;2023-08-12T05:25:18;8.65;;;5.63;;
78148;SDS011;67396;42.664;23.382;2023-08-12T05:27:44;7.28;;;4.88;;
78148;SDS011;67396;42.664;23.382;2023-08-12T05:30:09;9.85;;;5.47;;
78148;SDS011;67396;42.664;23.382;2023-08-12T05:32:35;9.43;;;5.35;;
78148;SDS011;67396;42.664;23.382;2023-08-12T05:35:01;7.35;;;5.03;;
78148;SDS011;67396;42.664;23.382;2023-08-12T05:37:26;9.50;;;4.93;;
78148;SDS011;67396;42.664;23.382;2023-08-12T05:39:52;11.20;;;7.18;;
78148;SDS011;67396;42.664;23.382;2023-08-12T05:42:17;16.45;;;8.85;;
78148;SDS011;67396;42.664;23.382;2023-08-12T05:44:42;17.10;;;10.20;;
78148;SDS011;67396;42.664;23.382;2023-08-12T05:47:08;13.18;;;7.63;;
78148;SDS011;67396;42.664;23.382;2023-08-12T05:49:34;7.38;;;4.72;;
78148;SDS011;67396;42.664;23.382;2023-08-12T05:51:59;5.93;;;4.13;;
78148;SDS011;67396;42.664;23.382;2023-08-12T05:54:24;10.88;;;4.18;;
78148;SDS011;67396;42.664;23.382;2023-08-12T05:56:50;8.98;;;3.88;;
78148;SDS011;67396;42.664;23.382;2023-08-12T05:59:15;6.75;;;3.90;;
78148;SDS011;67396;42.664;23.382;2023-08-12T06:01:41;8.63;;;3.35;;
78148;SDS011;67396;42.664;23.382;2023-08-12T06:04:06;5.38;;;3.28;;
78148;SDS011;67396;42.664;23.382;2023-08-12T06:06:31;5.78;;;3.60;;
78148;SDS011;67396;42.664;23.382;2023-08-12T06:08:57;4.03;;;3.13;;
78148;SDS011;67396;42.664;23.382;2023-08-12T06:11:22;4.35;;;3.45;;
78148;SDS011;67396;42.664;23.382;2023-08-12T06:13:48;4.13;;;2.72;;
78148;SDS011;67396;42.664;23.382;2023-08-12T06:16:13;5.28;;;3.55;;
78148;SDS011;67396;42.664;23.382;2023-08-12T06:18:39;6.05;;;3.53;;
78148;SDS011;67396;42.664;23.382;2023-08-12T06:21:04;4.32;;;3.50;;
78148;SDS011;67396;42.664;23.382;2023-08-12T06:23:29;10.07;;;3.53;;
78148;SDS011;67396;42.664;23.382;2023-08-12T06:25:55;6.93;;;4.03;;
78148;SDS011;67396;42.664;23.382;2023-08-12T06:28:20;4.45;;;3.45;;
78148;SDS011;67396;42.664;23.382;2023-08-12T06:30:46;4.78;;;2.97;;
78148;SDS011;67396;42.664;23.382;2023-08-12T06:33:13;8.70;;;3.75;;
78148;SDS011;67396;42.664;23.382;2023-08-12T06:35:39;5.30;;;2.92;;
78148;SDS011;67396;42.664;23.382;2023-08-12T06:38:05;5.57;;;3.28;;
78148;SDS011;67396;42.664;23.382;2023-08-12T06:40:30;5.38;;;3.65;;
78148;SDS011;67396;42.664;23.382;2023-08-12T06:42:56;6.57;;;3.50;;
78148;SDS011;67396;42.664;23.382;2023-08-12T06:45:21;4.40;;;3.33;;
78148;SDS011;67396;42.664;23.382;2023-08-12T06:47:47;6.13;;;3.42;;
78148;SDS011;67396;42.664;23.382;2023-08-12T06:50:13;4.82;;;3.55;;
78148;SDS011;67396;42.664;23.382;2023-08-12T06:52:38;5.60;;;3.13;;
78148;SDS011;67396;42.664;23.382;2023-08-12T06:55:03;6.15;;;3.83;;
78148;SDS011;67396;42.664;23.382;2023-08-12T06:57:29;6.03;;;3.97;;
78148;SDS011;67396;42.664;23.382;2023-08-12T06:59:55;114.75;;;11.05;;
78148;SDS011;67396;42.664;23.382;2023-08-12T07:02:20;33.70;;;5.57;;
78148;SDS011;67396;42.664;23.382;2023-08-12T07:04:45;65.55;;;8.30;;
78148;SDS011;67396;42.664;23.382;2023-08-12T07:07:11;6.78;;;4.05;;
78148;SDS011;67396;42.664;23.382;2023-08-12T07:13:00;5.07;;;3.42;;
78148;SDS011;67396;42.664;23.382;2023-08-12T07:15:25;5.05;;;3.40;;
78148;SDS011;67396;42.664;23.382;2023-08-12T07:17:51;5.35;;;3.40;;
78148;SDS011;67396;42.664;23.382;2023-08-12T07:20:16;6.35;;;4.03;;
78148;SDS011;67396;42.664;23.382;2023-08-12T07:22:42;6.38;;;3.47;;
78148;SDS011;67396;42.664;23.382;2023-08-12T07:25:13;7.28;;;3.28;;
78148;SDS011;67396;42.664;23.382;2023-08-12T07:27:38;5.80;;;3.42;;
78148;SDS011;67396;42.664;23.382;2023-08-12T07:30:04;6.72;;;3.60;;
78148;SDS011;67396;42.664;23.382;2023-08-12T07:32:29;4.65;;;3.22;;
78148;SDS011;67396;42.664;23.382;2023-08-12T07:34:55;4.55;;;3.25;;
78148;SDS011;67396;42.664;23.382;2023-08-12T07:37:20;5.28;;;3.15;;
78148;SDS011;67396;42.664;23.382;2023-08-12T07:39:46;10.60;;;3.72;;
78148;SDS011;67396;42.664;23.382;2023-08-12T07:42:11;5.78;;;3.58;;
78148;SDS011;67396;42.664;23.382;2023-08-12T07:44:39;17.80;;;4.00;;
78148;SDS011;67396;42.664;23.382;2023-08-12T07:47:04;5.45;;;3.55;;
78148;SDS011;67396;42.664;23.382;2023-08-12T07:49:30;5.38;;;3.42;;
78148;SDS011;67396;42.664;23.382;2023-08-12T07:51:55;6.05;;;3.58;;
78148;SDS011;67396;42.664;23.382;2023-08-12T07:54:21;7.70;;;4.28;;
78148;SDS011;67396;42.664;23.382;2023-08-12T07:56:46;9.30;;;3.85;;
78148;SDS011;67396;42.664;23.382;2023-08-12T07:59:12;7.28;;;3.78;;
78148;SDS011;67396;42.664;23.382;2023-08-12T08:01:37;7.25;;;4.18;;
78148;SDS011;67396;42.664;23.382;2023-08-12T08:04:02;5.03;;;3.67;;
78148;SDS011;67396;42.664;23.382;2023-08-12T08:06:28;4.78;;;3.60;;
78148;SDS011;67396;42.664;23.382;2023-08-12T08:08:54;5.40;;;3.67;;
78148;SDS011;67396;42.664;23.382;2023-08-12T08:11:20;6.00;;;4.20;;
78148;SDS011;67396;42.664;23.382;2023-08-12T08:13:46;4.47;;;3.28;;
78148;SDS011;67396;42.664;23.382;2023-08-12T08:16:11;6.40;;;3.63;;
78148;SDS011;67396;42.664;23.382;2023-08-12T08:18:37;6.40;;;3.70;;
78148;SDS011;67396;42.664;23.382;2023-08-12T08:21:02;7.93;;;3.53;;
78148;SDS011;67396;42.664;23.382;2023-08-12T08:23:28;5.40;;;3.33;;
78148;SDS011;67396;42.664;23.382;2023-08-12T08:25:53;8.77;;;3.92;;
78148;SDS011;67396;42.664;23.382;2023-08-12T08:28:18;4.75;;;3.50;;
78148;SDS011;67396;42.664;23.382;2023-08-12T08:30:44;5.00;;;3.13;;
78148;SDS011;67396;42.664;23.382;2023-08-12T08:33:09;5.57;;;3.38;;
78148;SDS011;67396;42.664;23.382;2023-08-12T08:35:35;4.85;;;2.70;;
78148;SDS011;67396;42.664;23.382;2023-08-12T08:38:00;4.13;;;3.13;;
78148;SDS011;67396;42.664;23.382;2023-08-12T08:40:26;6.00;;;3.08;;
78148;SDS011;67396;42.664;23.382;2023-08-12T08:42:52;5.55;;;3.42;;
78148;SDS011;67396;42.664;23.382;2023-08-12T08:45:18;6.13;;;3.10;;
78148;SDS011;67396;42.664;23.382;2023-08-12T08:47:46;4.45;;;3.30;;
78148;SDS011;67396;42.664;23.382;2023-08-12T08:50:12;10.45;;;3.42;;
78148;SDS011;67396;42.664;23.382;2023-08-12T08:52:39;7.65;;;3.70;;
78148;SDS011;67396;42.664;23.382;2023-08-12T08:55:05;6.40;;;3.13;;
78148;SDS011;67396;42.664;23.382;2023-08-12T08:57:31;4.78;;;2.92;;
78148;SDS011;67396;42.664;23.382;2023-08-12T08:59:57;4.78;;;3.20;;
78148;SDS011;67396;42.664;23.382;2023-08-12T09:02:23;4.20;;;2.95;;
78148;SDS011;67396;42.664;23.382;2023-08-12T09:04:49;3.33;;;2.88;;
78148;SDS011;67396;42.664;23.382;2023-08-12T09:07:15;5.07;;;3.55;;
78148;SDS011;67396;42.664;23.382;2023-08-12T09:09:42;4.90;;;3.15;;
78148;SDS011;67396;42.664;23.382;2023-08-12T09:12:14;7.05;;;3.42;;
78148;SDS011;67396;42.664;23.382;2023-08-12T09:14:41;5.88;;;3.65;;
78148;SDS011;67396;42.664;23.382;2023-08-12T09:17:08;6.18;;;3.72;;
78148;SDS011;67396;42.664;23.382;2023-08-12T09:19:34;9.93;;;3.80;;
78148;SDS011;67396;42.664;23.382;2023-08-12T09:21:59;6.57;;;4.43;;
78148;SDS011;67396;42.664;23.382;2023-08-12T09:24:27;6.60;;;3.75;;
78148;SDS011;67396;42.664;23.382;2023-08-12T09:26:54;5.95;;;3.58;;
78148;SDS011;67396;42.664;23.382;2023-08-12T09:29:29;14.98;;;8.65;;
78148;SDS011;67396;42.664;23.382;2023-08-12T09:32:12;5.78;;;3.97;;
78148;SDS011;67396;42.664;23.382;2023-08-12T09:34:45;4.30;;;3.38;;
78148;SDS011;67396;42.664;23.382;2023-08-12T09:37:12;5.30;;;3.30;;
78148;SDS011;67396;42.664;23.382;2023-08-12T09:39:38;3.75;;;3.03;;
78148;SDS011;67396;42.664;23.382;2023-08-12T09:42:05;3.92;;;2.58;;
78148;SDS011;67396;42.664;23.382;2023-08-12T09:44:30;4.57;;;3.40;;
78148;SDS011;67396;42.664;23.382;2023-08-12T09:46:59;4.30;;;2.67;;
78148;SDS011;67396;42.664;23.382;2023-08-12T09:49:25;4.35;;;3.10;;
78148;SDS011;67396;42.664;23.382;2023-08-12T09:51:51;3.50;;;2.90;;
78148;SDS011;67396;42.664;23.382;2023-08-12T09:54:17;3.50;;;2.90;;
78148;SDS011;67396;42.664;23.382;2023-08-12T09:56:44;5.07;;;2.92;;
78148;SDS011;67396;42.664;23.382;2023-08-12T09:59:12;4.22;;;3.05;;
78148;SDS011;67396;42.664;23.382;2023-08-12T10:01:44;3.13;;;2.65;;
78148;SDS011;67396;42.664;23.382;2023-08-12T10:04:11;3.22;;;2.92;;
78148;SDS011;67396;42.664;23.382;2023-08-12T10:06:40;4.57;;;3.05;;
78148;SDS011;67396;42.664;23.382;2023-08-12T10:09:06;5.55;;;3.80;;
78148;SDS011;67396;42.664;23.382;2023-08-12T10:11:34;4.50;;;3.08;;
78148;SDS011;67396;42.664;23.382;2023-08-12T10:14:01;4.60;;;2.80;;
78148;SDS011;67396;42.664;23.382;2023-08-12T10:16:29;4.28;;;3.53;;
78148;SDS011;67396;42.664;23.382;2023-08-12T10:18:55;6.60;;;4.63;;
78148;SDS011;67396;42.664;23.382;2023-08-12T10:21:22;5.13;;;3.08;;
78148;SDS011;67396;42.664;23.382;2023-08-12T10:23:49;5.53;;;2.58;;
78148;SDS011;67396;42.664;23.382;2023-08-12T10:26:15;4.20;;;2.53;;
78148;SDS011;67396;42.664;23.382;2023-08-12T10:28:42;5.85;;;2.80;;
78148;SDS011;67396;42.664;23.382;2023-08-12T10:31:10;5.05;;;3.08;;
78148;SDS011;67396;42.664;23.382;2023-08-12T10:33:39;4.60;;;2.90;;
78148;SDS011;67396;42.664;23.382;2023-08-12T10:36:06;4.50;;;3.10;;
78148;SDS011;67396;42.664;23.382;2023-08-12T10:38:32;4.10;;;3.08;;
78148;SDS011;67396;42.664;23.382;2023-08-12T10:44:01;6.15;;;3.70;;
78148;SDS011;67396;42.664;23.382;2023-08-12T10:46:36;3.42;;;2.70;;
78148;SDS011;67396;42.664;23.382;2023-08-12T10:49:03;2.70;;;2.30;;
78148;SDS011;67396;42.664;23.382;2023-08-12T10:51:44;6.15;;;2.70;;
78148;SDS011;67396;42.664;23.382;2023-08-12T11:02:18;8.05;;;4.68;;
78148;SDS011;67396;42.664;23.382;2023-08-12T11:05:12;4.90;;;3.78;;
78148;SDS011;67396;42.664;23.382;2023-08-12T11:07:42;5.47;;;3.78;;
78148;SDS011;67396;42.664;23.382;2023-08-12T11:10:24;7.15;;;3.50;;
78148;SDS011;67396;42.664;23.382;2023-08-12T11:15:17;5.43;;;2.75;;
78148;SDS011;67396;42.664;23.382;2023-08-12T11:17:46;3.53;;;2.67;;
78148;SDS011;67396;42.664;23.382;2023-08-12T11:20:12;3.78;;;2.72;;
78148;SDS011;67396;42.664;23.382;2023-08-12T11:22:39;2.95;;;2.45;;
78148;SDS011;67396;42.664;23.382;2023-08-12T11:25:07;4.60;;;2.40;;
78148;SDS011;67396;42.664;23.382;2023-08-12T11:27:41;3.40;;;2.25;;
78148;SDS011;67396;42.664;23.382;2023-08-12T11:30:08;4.57;;;2.30;;
78148;SDS011;67396;42.664;23.382;2023-08-12T11:32:35;3.60;;;2.60;;
78148;SDS011;67396;42.664;23.382;2023-08-12T11:35:02;4.70;;;2.90;;
78148;SDS011;67396;42.664;23.382;2023-08-12T11:37:29;3.28;;;2.20;;
78148;SDS011;67396;42.664;23.382;2023-08-12T11:39:54;7.15;;;2.13;;
78148;SDS011;67396;42.664;23.382;2023-08-12T11:42:20;3.05;;;2.00;;
78148;SDS011;67396;42.664;23.382;2023-08-12T11:44:45;3.00;;;1.80;;
78148;SDS011;67396;42.664;23.382;2023-08-12T11:47:10;2.85;;;1.95;;
78148;SDS011;67396;42.664;23.382;2023-08-12T11:49:36;2.25;;;1.75;;
78148;SDS011;67396;42.664;23.382;2023-08-12T11:52:01;4.68;;;1.30;;
78148;SDS011;67396;42.664;23.382;2023-08-12T11:54:28;2.45;;;1.85;;
78148;SDS011;67396;42.664;23.382;2023-08-12T11:56:54;3.22;;;1.85;;
78148;SDS011;67396;42.664;23.382;2023-08-12T11:59:21;2.53;;;2.00;;
78148;SDS011;67396;42.664;23.382;2023-08-12T12:01:50;2.03;;;1.52;;
78148;SDS011;67396;42.664;23.382;2023-08-12T12:04:16;2.88;;;1.70;;
78148;SDS011;67396;42.664;23.382;2023-08-12T12:06:45;3.55;;;1.83;;
78148;SDS011;67396;42.664;23.382;2023-08-12T12:09:10;4.03;;;2.30;;
78148;SDS011;67396;42.664;23.382;2023-08-12T12:11:36;4.78;;;2.00;;
78148;SDS011;67396;42.664;23.382;2023-08-12T12:14:02;3.40;;;2.22;;
78148;SDS011;67396;42.664;23.382;2023-08-12T12:19:13;2.85;;;2.00;;
78148;SDS011;67396;42.664;23.382;2023-08-12T12:21:41;3.20;;;2.53;;
78148;SDS011;67396;42.664;23.382;2023-08-12T12:24:08;5.90;;;2.30;;
78148;SDS011;67396;42.664;23.382;2023-08-12T12:26:34;4.70;;;2.72;;
78148;SDS011;67396;42.664;23.382;2023-08-12T12:29:00;3.25;;;2.45;;
78148;SDS011;67396;42.664;23.382;2023-08-12T12:31:26;5.78;;;2.35;;
78148;SDS011;67396;42.664;23.382;2023-08-12T12:33:52;3.78;;;2.80;;
78148;SDS011;67396;42.664;23.382;2023-08-12T12:36:17;5.30;;;2.33;;
78148;SDS011;67396;42.664;23.382;2023-08-12T12:38:43;4.32;;;2.50;;
78148;SDS011;67396;42.664;23.382;2023-08-12T12:41:08;4.03;;;2.50;;
78148;SDS011;67396;42.664;23.382;2023-08-12T12:43:34;4.75;;;3.22;;
78148;SDS011;67396;42.664;23.382;2023-08-12T12:45:59;4.55;;;2.63;;
78148;SDS011;67396;42.664;23.382;2023-08-12T12:48:25;3.78;;;2.45;;
78148;SDS011;67396;42.664;23.382;2023-08-12T12:50:50;4.40;;;2.60;;
78148;SDS011;67396;42.664;23.382;2023-08-12T12:53:16;4.07;;;2.78;;
78148;SDS011;67396;42.664;23.382;2023-08-12T12:55:42;4.40;;;2.85;;
78148;SDS011;67396;42.664;23.382;2023-08-12T12:58:07;4.43;;;3.03;;
78148;SDS011;67396;42.664;23.382;2023-08-12T13:00:34;3.80;;;2.80;;
78148;SDS011;67396;42.664;23.382;2023-08-12T13:02:59;6.13;;;3.58;;
78148;SDS011;67396;42.664;23.382;2023-08-12T13:05:25;8.45;;;5.47;;
78148;SDS011;67396;42.664;23.382;2023-08-12T13:07:50;4.55;;;3.15;;
78148;SDS011;67396;42.664;23.382;2023-08-12T13:10:16;5.13;;;3.70;;
78148;SDS011;67396;42.664;23.382;2023-08-12T13:12:41;9.52;;;5.47;;
78148;SDS011;67396;42.664;23.382;2023-08-12T13:15:07;6.05;;;5.10;;
78148;SDS011;67396;42.664;23.382;2023-08-12T13:17:32;4.95;;;3.50;;
78148;SDS011;67396;42.664;23.382;2023-08-12T13:19:58;3.83;;;2.50;;
78148;SDS011;67396;42.664;23.382;2023-08-12T13:22:23;3.47;;;2.20;;
78148;SDS011;67396;42.664;23.382;2023-08-12T13:24:49;3.28;;;2.40;;
78148;SDS011;67396;42.664;23.382;2023-08-12T13:27:15;4.75;;;2.38;;
78148;SDS011;67396;42.664;23.382;2023-08-12T13:29:42;5.90;;;2.60;;
78148;SDS011;67396;42.664;23.382;2023-08-12T13:32:07;4.63;;;2.03;;
78148;SDS011;67396;42.664;23.382;2023-08-12T13:34:33;3.92;;;2.65;;
78148;SDS011;67396;42.664;23.382;2023-08-12T13:36:58;4.53;;;2.15;;
78148;SDS011;67396;42.664;23.382;2023-08-12T13:39:24;3.58;;;2.10;;
78148;SDS011;67396;42.664;23.382;2023-08-12T13:41:49;4.32;;;2.40;;
78148;SDS011;67396;42.664;23.382;2023-08-12T13:44:14;3.58;;;2.08;;
78148;SDS011;67396;42.664;23.382;2023-08-12T13:46:40;4.40;;;1.90;;
78148;SDS011;67396;42.664;23.382;2023-08-12T13:49:05;2.25;;;2.05;;
78148;SDS011;67396;42.664;23.382;2023-08-12T13:51:31;3.08;;;2.20;;
78148;SDS011;67396;42.664;23.382;2023-08-12T13:53:56;3.03;;;2.20;;
78148;SDS011;67396;42.664;23.382;2023-08-12T13:56:22;2.95;;;2.15;;
78148;SDS011;67396;42.664;23.382;2023-08-12T13:58:47;3.25;;;1.90;;
78148;SDS011;67396;42.664;23.382;2023-08-12T14:01:13;3.00;;;1.75;;
78148;SDS011;67396;42.664;23.382;2023-08-12T14:03:38;2.35;;;2.10;;
78148;SDS011;67396;42.664;23.382;2023-08-12T14:06:03;4.43;;;2.30;;
78148;SDS011;67396;42.664;23.382;2023-08-12T14:08:29;6.10;;;2.10;;
78148;SDS011;67396;42.664;23.382;2023-08-12T14:10:55;2.45;;;2.05;;
78148;SDS011;67396;42.664;23.382;2023-08-12T14:13:20;3.20;;;1.85;;
78148;SDS011;67396;42.664;23.382;2023-08-12T14:15:46;2.53;;;2.15;;
78148;SDS011;67396;42.664;23.382;2023-08-12T14:18:11;4.53;;;1.90;;
78148;SDS011;67396;42.664;23.382;2023-08-12T14:20:37;5.38;;;2.30;;
78148;SDS011;67396;42.664;23.382;2023-08-12T14:23:03;2.47;;;1.90;;
78148;SDS011;67396;42.664;23.382;2023-08-12T14:25:28;4.95;;;2.28;;
78148;SDS011;67396;42.664;23.382;2023-08-12T14:27:55;2.42;;;1.92;;
78148;SDS011;67396;42.664;23.382;2023-08-12T14:30:23;2.88;;;2.40;;
78148;SDS011;67396;42.664;23.382;2023-08-12T14:32:52;2.15;;;1.83;;
78148;SDS011;67396;42.664;23.382;2023-08-12T14:35:18;3.88;;;2.33;;
78148;SDS011;67396;42.664;23.382;2023-08-12T14:37:44;3.08;;;2.20;;
78148;SDS011;67396;42.664;23.382;2023-08-12T14:40:10;3.00;;;2.00;;
78148;SDS011;67396;42.664;23.382;2023-08-12T14:42:38;4.53;;;1.80;;
78148;SDS011;67396;42.664;23.382;2023-08-12T14:45:03;3.38;;;2.17;;
78148;SDS011;67396;42.664;23.382;2023-08-12T14:47:29;3.25;;;2.20;;